Time;durP1;ratioP1;P1;durP2;ratioP2;P2;SDS_P1;SDS_P2;PMS_P1;PMS_P2;Temp;Humidity;BMP_temperature;BMP_pressure;BME280_temperature;BME280_humidity;BME280_pressure;Samples;Min_cycle;Max_cycle;Signal;HPM_P1;HPM_P2
2022/08/27 00:03:17;;;;;;;;;;;24.80;55.80;;;23.24;58.50;100744.97;12246057;19;19951;-87
2022/08/27 00:07:18;;;;;;;;;;;24.80;56.00;;;22.86;58.34;100683.31;12247053;19;19923;-86
2022/08/27 00:11:24;;;;;;;;;;;24.70;56.00;;;23.27;58.01;100760.59;12247637;19;20565;-87
2022/08/27 00:15:26;;;;;;;;;;;24.70;56.10;;;23.22;58.54;100738.13;12245965;19;19915;-85
2022/08/27 00:19:28;;;;;;;;;;;24.80;56.10;;;23.31;58.48;100755.78;12247457;19;19918;-86
2022/08/27 00:23:30;;;;;;;;;;;24.80;56.20;;;23.34;58.50;100758.13;12247967;19;20365;-87
2022/08/27 00:27:32;;;;;;;;;;;24.90;56.10;;;23.18;58.63;100721.66;12248684;19;19934;-86
2022/08/27 00:31:41;;;;;;;;;;;24.80;56.10;;;23.01;58.43;100690.66;12246345;19;19923;-87
2022/08/27 00:35:43;;;;;;;;;;;24.80;56.20;;;23.32;58.80;100744.13;12247091;19;19944;-86
2022/08/27 00:39:45;;;;;;;;;;;24.90;56.20;;;22.85;58.41;100668.34;12244102;19;19943;-88
2022/08/27 00:43:59;;;;;;;;;;;25.10;56.30;;;23.23;58.51;100740.63;12245347;19;20326;-87
2022/08/27 00:48:01;;;;;;;;;;;24.90;56.20;;;22.88;58.37;100670.69;12246150;19;19915;-87
2022/08/27 00:52:14;;;;;;;;;;;24.90;56.20;;;23.41;58.70;100751.09;12242185;19;19921;-87
2022/08/27 00:56:22;;;;;;;;;;;24.90;56.20;;;23.31;58.18;100731.81;12246600;19;19919;-86
2022/08/27 01:00:23;;;;;;;;;;;25.00;56.20;;;23.31;58.59;100731.81;12243699;19;19942;-86
2022/08/27 01:04:25;;;;;;;;;;;24.90;56.00;;;23.25;58.59;100728.00;12246141;19;20394;-88
2022/08/27 01:08:31;;;;;;;;;;;24.90;56.10;;;23.26;58.40;100737.63;12244239;19;19911;-87
2022/08/27 01:12:33;;;;;;;;;;;24.80;56.00;;;23.21;58.34;100734.63;12241326;19;19923;-86
2022/08/27 01:16:38;;;;;;;;;;;24.80;56.00;;;23.20;58.49;100730.31;12243896;19;20291;-87
2022/08/27 01:20:56;;;;;;;;;;;24.80;56.00;;;23.19;58.92;100732.13;12246772;19;20305;-86
2022/08/27 01:25:03;;;;;;;;;;;24.70;56.10;;;23.17;58.80;100733.31;12257315;19;19989;-86
2022/08/27 01:29:05;;;;;;;;;;;24.70;56.30;;;23.07;58.54;100711.34;12253995;19;19970;-88
2022/08/27 01:33:15;;;;;;;;;;;24.70;56.70;;;22.98;58.39;100689.19;12252856;19;19911;-88
2022/08/27 01:37:18;;;;;;;;;;;24.70;56.50;;;23.11;58.60;100702.00;12256867;19;19922;-88
2022/08/27 01:41:19;;;;;;;;;;;24.70;56.50;;;23.17;58.78;100714.66;12254643;19;19937;-87
2022/08/27 01:45:25;;;;;;;;;;;24.80;56.40;;;22.91;58.79;100677.50;12253231;19;19918;-86
2022/08/27 01:49:27;;;;;;;;;;;25.00;56.50;;;23.16;58.67;100712.97;12259235;19;19926;-87
2022/08/27 01:53:29;;;;;;;;;;;24.70;56.20;;;23.16;58.79;100710.31;12257458;19;19922;-86
2022/08/27 01:57:31;;;;;;;;;;;24.70;56.10;;;22.84;58.90;100677.31;12255854;19;19975;-87
2022/08/27 02:01:34;;;;;;;;;;;24.70;56.30;;;23.13;59.15;100721.31;12254298;19;19922;-86
2022/08/27 02:05:37;;;;;;;;;;;24.70;56.50;;;23.06;59.03;100714.97;12255834;19;19915;-86
2022/08/27 02:09:39;;;;;;;;;;;24.70;56.60;;;22.74;58.90;100664.19;12256291;19;19910;-88
2022/08/27 02:13:41;;;;;;;;;;;24.70;56.70;;;23.12;58.75;100720.50;12254660;19;19929;-87
2022/08/27 02:17:42;;;;;;;;;;;24.70;56.60;;;23.14;58.84;100725.63;12253677;19;19915;-86
2022/08/27 02:21:44;;;;;;;;;;;24.90;56.80;;;23.15;59.14;100736.13;12250855;19;19919;-87
2022/08/27 02:25:46;;;;;;;;;;;24.70;56.80;;;23.08;59.24;100728.97;12254066;19;19915;-87
2022/08/27 02:29:49;;;;;;;;;;;24.70;56.90;;;23.06;59.15;100729.16;12252533;19;19911;-87
2022/08/27 02:33:51;;;;;;;;;;;24.70;57.00;;;23.15;59.20;100746.78;12250499;19;19927;-87
2022/08/27 02:37:52;;;;;;;;;;;24.70;57.00;;;23.19;59.13;100745.44;12251974;19;19943;-86
2022/08/27 02:41:54;;;;;;;;;;;24.70;57.10;;;23.16;59.12;100742.28;12249835;19;20306;-88
2022/08/27 02:45:56;;;;;;;;;;;24.70;57.10;;;23.22;59.46;100741.63;12253826;19;19915;-86
2022/08/27 02:49:57;;;;;;;;;;;24.90;57.20;;;23.27;59.18;100743.78;12251796;19;19930;-87
2022/08/27 02:54:00;;;;;;;;;;;24.80;57.00;;;23.28;59.56;100740.97;12251741;19;19915;-87
2022/08/27 02:58:01;;;;;;;;;;;24.80;57.40;;;23.29;59.28;100747.13;12252245;19;19907;-87
2022/08/27 03:02:03;;;;;;;;;;;24.80;57.10;;;22.99;59.31;100693.50;12247997;19;19951;-86
2022/08/27 03:06:04;;;;;;;;;;;24.90;57.20;;;23.33;59.30;100756.44;12251514;19;20019;-85
2022/08/27 03:10:07;;;;;;;;;;;24.90;57.20;;;23.36;59.33;100764.13;12249936;19;19929;-87
2022/08/27 03:14:09;;;;;;;;;;;24.90;57.20;;;23.29;59.40;100747.13;12246966;19;19915;-86
2022/08/27 03:18:16;;;;;;;;;;;24.90;57.20;;;22.88;59.31;100685.81;12250450;19;19926;-86
2022/08/27 03:22:18;;;;;;;;;;;24.90;57.20;;;23.25;59.56;100743.97;12246278;19;19921;-88
2022/08/27 03:26:20;;;;;;;;;;;25.10;57.40;;;23.23;59.28;100734.47;12250908;19;19936;-86
2022/08/27 03:30:22;;;;;;;;;;;24.80;57.30;;;23.14;59.57;100715.84;12249560;19;19915;-88
2022/08/27 03:34:27;;;;;;;;;;;24.80;57.40;;;23.03;59.30;100702.00;12250993;19;19915;-86
2022/08/27 03:38:29;;;;;;;;;;;24.80;57.50;;;23.22;59.38;100728.28;12248819;19;19940;-86
2022/08/27 03:42:31;;;;;;;;;;;24.80;57.50;;;23.23;59.58;100732.66;12243591;19;19974;-87
2022/08/27 03:46:32;;;;;;;;;;;24.80;57.50;;;22.85;59.31;100663.03;12248973;19;19931;-89
2022/08/27 03:50:37;;;;;;;;;;;24.80;57.60;;;23.29;59.70;100737.28;12248858;19;20247;-86
2022/08/27 03:54:38;;;;;;;;;;;24.80;57.70;;;22.93;59.32;100678.19;12250952;19;19923;-87
2022/08/27 03:58:40;;;;;;;;;;;24.80;57.60;;;23.23;59.58;100721.97;12248834;19;19948;-88
2022/08/27 04:02:42;;;;;;;;;;;24.90;57.70;;;23.28;59.48;100726.81;12247999;19;19922;-86
2022/08/27 04:06:50;;;;;;;;;;;24.90;57.70;;;23.33;59.90;100732.44;12252376;19;19923;-88
2022/08/27 04:10:53;;;;;;;;;;;24.80;57.70;;;23.29;59.52;100725.81;12249600;19;19926;-86
2022/08/27 04:14:58;;;;;;;;;;;24.80;57.70;;;23.29;59.60;100720.47;12249765;19;19919;-88
2022/08/27 04:19:03;;;;;;;;;;;24.90;57.80;;;23.32;59.84;100730.81;12247823;19;19919;-87
2022/08/27 04:23:05;;;;;;;;;;;24.90;57.80;;;23.28;59.49;100730.31;12247230;19;19925;-86
2022/08/27 04:27:06;;;;;;;;;;;24.90;57.80;;;23.32;59.91;100725.47;12249163;19;19915;-86
2022/08/27 04:31:08;;;;;;;;;;;24.90;57.60;;;23.23;59.74;100713.16;12248856;19;19911;-87
2022/08/27 04:35:10;;;;;;;;;;;24.90;57.90;;;23.42;59.90;100742.13;12250453;19;19921;-86
2022/08/27 04:39:13;;;;;;;;;;;24.90;57.90;;;23.35;59.59;100738.47;12249780;19;19935;-86
2022/08/27 04:43:20;;;;;;;;;;;24.90;57.90;;;23.29;59.76;100723.97;12252986;19;19970;-87
2022/08/27 04:47:21;;;;;;;;;;;24.90;57.90;;;23.22;59.77;100722.13;12252168;19;19911;-87
2022/08/27 04:51:23;;;;;;;;;;;25.00;57.90;;;23.38;59.70;100744.28;12251423;19;19915;-86
2022/08/27 04:55:25;;;;;;;;;;;24.90;57.80;;;23.42;59.58;100747.47;12259259;19;19923;-87
2022/08/27 04:59:26;;;;;;;;;;;24.90;58.00;;;23.44;59.74;100747.28;12260783;19;19925;-87
2022/08/27 05:03:28;;;;;;;;;;;25.00;58.00;;;23.43;60.05;100749.09;12261684;19;20238;-86
2022/08/27 05:07:30;;;;;;;;;;;25.00;58.10;;;23.35;59.94;100733.94;12262398;19;19923;-87
2022/08/27 05:11:33;;;;;;;;;;;25.20;58.20;;;23.28;60.06;100717.00;12259858;19;19923;-87
2022/08/27 05:15:35;;;;;;;;;;;25.00;58.10;;;22.96;60.00;100672.53;12261309;19;19951;-87
2022/08/27 05:19:37;;;;;;;;;;;25.10;58.20;;;23.14;60.03;100696.31;12259250;19;19915;-87
2022/08/27 05:23:39;;;;;;;;;;;25.00;58.20;;;23.42;59.80;100744.78;12258433;19;19930;-87
2022/08/27 05:27:40;;;;;;;;;;;25.00;58.20;;;23.25;60.07;100714.66;12257863;19;19919;-87
2022/08/27 05:31:42;;;;;;;;;;;25.00;58.20;;;23.40;59.96;100741.44;12253805;19;19982;-86
2022/08/27 05:35:46;;;;;;;;;;;25.10;58.20;;;23.36;59.90;100730.31;12256821;19;19914;-87
2022/08/27 05:39:47;;;;;;;;;;;25.00;58.30;;;23.51;60.12;100754.44;12253774;19;19915;-86
2022/08/27 05:43:49;;;;;;;;;;;25.00;58.30;;;23.47;60.10;100746.97;12256635;19;19915;-88
2022/08/27 05:47:51;;;;;;;;;;;25.00;58.40;;;23.32;60.14;100725.47;12257524;19;19926;-86
2022/08/27 05:51:52;;;;;;;;;;;25.10;58.40;;;23.49;60.31;100752.94;12253307;19;19922;-88
2022/08/27 05:55:54;;;;;;;;;;;25.10;58.30;;;23.57;60.09;100768.91;12256865;19;20290;-88
2022/08/27 06:04:17;;;;;;;;;;;25.10;58.50;;;23.53;60.18;100760.44;12255264;19;19929;-88
2022/08/27 06:08:19;;;;;;;;;;;25.10;58.40;;;23.66;60.22;100780.44;12254813;19;19919;-87
2022/08/27 06:12:20;;;;;;;;;;;25.10;58.40;;;23.62;60.48;100770.06;12251572;19;20337;-86
2022/08/27 06:16:22;;;;;;;;;;;25.20;58.40;;;23.67;59.99;100776.75;12255403;19;19915;-88
2022/08/27 06:20:24;;;;;;;;;;;25.20;58.50;;;23.52;60.04;100757.94;12250456;19;19967;-86
2022/08/27 06:24:25;;;;;;;;;;;25.20;58.30;;;23.56;60.47;100770.75;12255442;19;20410;-87
2022/08/27 06:28:30;;;;;;;;;;;25.40;58.40;;;23.70;60.50;100792.41;12255848;19;20325;-87
2022/08/27 06:32:32;;;;;;;;;;;25.20;58.30;;;23.67;60.38;100782.91;12250960;19;19926;-89
2022/08/27 06:36:40;;;;;;;;;;;25.20;58.30;;;23.67;60.32;100780.25;12256024;19;19914;-85
2022/08/27 06:40:42;;;;;;;;;;;25.20;58.40;;;23.70;60.33;100787.91;12251530;19;19915;-87
2022/08/27 06:44:43;;;;;;;;;;;25.20;58.30;;;23.63;60.52;100776.25;12254819;19;19939;-86
2022/08/27 06:48:45;;;;;;;;;;;25.20;58.40;;;23.69;60.39;100791.59;12254932;19;20278;-88
2022/08/27 06:52:54;;;;;;;;;;;25.30;58.50;;;23.70;60.57;100789.75;12248150;19;20363;-87
2022/08/27 06:56:58;;;;;;;;;;;25.30;58.40;;;23.74;60.26;100799.94;12252329;19;19914;-85
2022/08/27 07:01:01;;;;;;;;;;;25.30;58.80;;;23.56;60.17;100772.59;12250283;19;19957;-87
2022/08/27 07:05:03;;;;;;;;;;;25.30;58.50;;;23.47;60.68;100750.44;12251080;19;19923;-87
2022/08/27 07:09:06;;;;;;;;;;;25.30;58.50;;;23.58;60.70;100767.94;12250768;19;19944;-86
2022/08/27 07:13:11;;;;;;;;;;;25.30;58.60;;;23.81;60.28;100814.25;12248224;19;19947;-87
2022/08/27 07:17:12;;;;;;;;;;;25.30;58.60;;;23.79;60.35;100808.28;12250619;19;20250;-86
2022/08/27 07:21:13;;;;;;;;;;;25.30;58.60;;;23.65;60.85;100779.56;12247881;19;19922;-88
2022/08/27 07:25:19;;;;;;;;;;;25.40;58.70;;;23.81;60.75;100802.75;12251055;19;19938;-86
2022/08/27 07:29:20;;;;;;;;;;;25.30;58.70;;;23.75;60.41;100785.59;12251294;19;19974;-89
2022/08/27 07:33:22;;;;;;;;;;;25.40;58.80;;;23.82;60.82;100788.44;12249916;19;20269;-88
2022/08/27 07:37:23;;;;;;;;;;;25.40;58.80;;;23.78;60.87;100779.91;12251327;19;19917;-88
2022/08/27 07:41:25;;;;;;;;;;;25.40;58.90;;;23.59;60.75;100753.59;12246696;19;19954;-87
2022/08/27 07:45:28;;;;;;;;;;;25.60;59.10;;;23.81;60.60;100782.25;12249566;19;19921;-87
2022/08/27 07:49:30;;;;;;;;;;;25.50;59.00;;;23.84;60.80;100775.75;12249135;19;19938;-88
2022/08/27 07:53:32;;;;;;;;;;;25.40;59.00;;;23.99;60.53;100807.91;12249633;19;19917;-87
2022/08/27 07:57:34;;;;;;;;;;;25.40;59.00;;;23.75;60.64;100758.94;12244175;19;19927;-87
2022/08/27 08:01:35;;;;;;;;;;;25.50;59.10;;;24.08;60.70;100805.00;12247912;19;19915;-88
2022/08/27 08:05:42;;;;;;;;;;;25.60;59.10;;;24.15;60.63;100807.03;12249930;19;20353;-88
2022/08/27 08:09:43;;;;;;;;;;;25.60;59.00;;;23.90;60.56;100767.06;12249313;19;19927;-88
2022/08/27 08:13:46;;;;;;;;;;;25.70;58.80;;;24.11;60.51;100800.34;12248320;19;19919;-88
2022/08/27 08:17:47;;;;;;;;;;;25.60;58.90;;;24.17;60.81;100803.19;12248740;19;19963;-88
2022/08/27 08:21:48;;;;;;;;;;;25.70;59.10;;;23.89;60.80;100749.38;12246181;19;19994;-88
2022/08/27 08:25:50;;;;;;;;;;;25.70;59.10;;;24.13;61.05;100785.84;12249638;19;19929;-88
2022/08/27 08:29:55;;;;;;;;;;;25.70;59.10;;;23.89;61.05;100746.72;12244804;19;20007;-87
2022/08/27 08:33:56;;;;;;;;;;;25.70;59.20;;;24.10;60.81;100780.84;12248384;19;20351;-87
2022/08/27 08:38:00;;;;;;;;;;;25.70;59.20;;;24.12;60.82;100776.19;12247540;19;19947;-87
2022/08/27 08:42:06;;;;;;;;;;;25.70;59.10;;;24.11;61.11;100774.50;12244339;19;19919;-86
2022/08/27 08:46:13;;;;;;;;;;;25.70;59.10;;;24.21;60.70;100774.31;12247180;19;19933;-87
2022/08/27 08:50:33;;;;;;;;;;;25.80;59.10;;;24.25;60.90;100773.78;12249074;19;19927;-88
2022/08/27 08:54:37;;;;;;;;;;;25.70;59.20;;;24.20;60.99;100753.97;12246319;19;20000;-87
2022/08/27 08:59:07;;;;;;;;;;;25.70;59.30;;;24.20;61.20;100749.47;12246700;19;19923;-87
2022/08/27 09:03:14;;;;;;;;;;;25.70;59.30;;;24.27;60.93;100752.25;12242187;19;19922;-86
2022/08/27 09:07:19;;;;;;;;;;;25.80;59.30;;;24.31;61.28;100768.78;12247714;19;19911;-87
2022/08/27 09:11:32;;;;;;;;;;;25.80;59.30;;;24.33;60.80;100777.41;12243990;19;19956;-88
2022/08/27 09:15:35;;;;;;;;;;;25.80;59.40;;;24.36;61.22;100788.59;12246919;19;19937;-87
2022/08/27 09:19:37;;;;;;;;;;;25.80;59.10;;;24.27;60.81;100774.44;12242505;19;19930;-84
2022/08/27 09:24:04;;;;;;;;;;;25.80;59.10;;;24.40;61.02;100787.22;12247013;19;19926;-86
2022/08/27 09:32:33;;;;;;;;;;;25.90;59.30;;;24.38;61.15;100807.91;12241748;19;20377;-86
2022/08/27 09:36:50;;;;;;;;;;;25.90;59.30;;;24.26;61.02;100793.31;12245216;19;19945;-86
2022/08/27 09:40:51;;;;;;;;;;;25.80;59.20;;;24.39;60.96;100809.59;12247820;19;19926;-86
2022/08/27 09:44:54;;;;;;;;;;;25.90;59.10;;;24.48;61.06;100818.44;12256652;19;19943;-86
2022/08/27 09:48:55;;;;;;;;;;;25.90;59.30;;;24.53;61.08;100837.44;12256614;19;20618;-86
2022/08/27 09:52:58;;;;;;;;;;;26.00;59.10;;;24.49;60.87;100825.44;12251024;19;20377;-84
2022/08/27 09:56:59;;;;;;;;;;;26.00;59.20;;;24.50;60.81;100838.63;12255174;19;19923;-86
2022/08/27 10:01:14;;;;;;;;;;;26.10;59.20;;;24.55;60.61;100845.25;12252126;19;19930;-85
2022/08/27 10:05:26;;;;;;;;;;;26.10;59.50;;;24.50;60.83;100841.28;12255138;19;19931;-85
2022/08/27 10:09:37;;;;;;;;;;;26.00;59.10;;;24.54;61.08;100843.59;12254523;19;19935;-87
2022/08/27 10:13:46;;;;;;;;;;;26.10;59.20;;;24.48;61.17;100840.63;12256185;19;19922;-88
2022/08/27 10:18:04;;;;;;;;;;;26.10;59.20;;;24.47;61.64;100838.97;12254584;19;19911;-86
2022/08/27 10:22:18;;;;;;;;;;;26.10;59.10;;;24.65;61.33;100861.91;12251806;19;19946;-84
2022/08/27 10:26:34;;;;;;;;;;;26.10;59.10;;;24.68;61.12;100853.56;12258608;19;19918;-87
2022/08/27 10:31:00;;;;;;;;;;;26.10;59.30;;;24.69;60.89;100848.06;12260371;19;20352;-85
2022/08/27 10:35:32;;;;;;;;;;;26.20;59.10;;;24.64;60.83;100845.06;12260672;19;19918;-86
2022/08/27 10:40:02;;;;;;;;;;;26.20;59.10;;;24.75;60.78;100862.56;12256773;19;19910;-85
2022/08/27 10:44:15;;;;;;;;;;;26.20;59.10;;;24.63;61.04;100840.75;12258694;19;19931;-85
2022/08/27 10:48:27;;;;;;;;;;;26.20;59.20;;;24.41;61.01;100796.06;12258782;19;19919;-86
2022/08/27 10:52:42;;;;;;;;;;;26.20;59.20;;;24.76;61.10;100850.03;12256787;19;19961;-87
2022/08/27 10:56:51;;;;;;;;;;;26.20;59.20;;;24.68;61.13;100840.19;12258636;19;20370;-87
2022/08/27 11:01:23;;;;;;;;;;;26.20;59.20;;;24.78;61.16;100853.34;12256446;19;19923;-86
2022/08/27 11:05:40;;;;;;;;;;;26.20;59.40;;;24.78;61.39;100845.34;12260089;19;19942;-85
2022/08/27 11:09:55;;;;;;;;;;;26.30;59.30;;;24.73;61.21;100835.16;12259585;19;19911;-85
2022/08/27 11:13:58;;;;;;;;;;;26.30;59.30;;;24.52;61.36;100809.09;12258730;19;19923;-86
2022/08/27 11:18:04;;;;;;;;;;;26.50;59.50;;;24.86;61.13;100856.00;12258675;19;19918;-85
2022/08/27 11:22:13;;;;;;;;;;;26.30;59.10;;;24.78;61.38;100840.00;12256098;19;19918;-84
2022/08/27 11:26:14;;;;;;;;;;;26.50;59.20;;;24.83;61.13;100843.81;12254755;19;20288;-85
2022/08/27 11:30:33;;;;;;;;;;;26.30;59.20;;;24.92;61.15;100849.94;12250824;19;19915;-87
2022/08/27 11:34:49;;;;;;;;;;;26.40;59.40;;;24.93;61.36;100857.78;12254086;19;20321;-85
2022/08/27 11:39:04;;;;;;;;;;;26.40;59.40;;;24.99;61.05;100858.09;12253166;19;20359;-84
2022/08/27 11:43:15;;;;;;;;;;;26.40;59.40;;;24.89;61.26;100848.44;12247624;19;19911;-86
2022/08/27 11:47:26;;;;;;;;;;;26.40;59.30;;;25.04;61.12;100872.59;12252160;19;19914;-84
2022/08/27 11:51:34;;;;;;;;;;;26.50;59.30;;;24.97;60.88;100852.09;12249354;19;19911;-84
2022/08/27 11:55:38;;;;;;;;;;;26.70;59.50;;;25.10;61.39;100866.53;12251435;19;19957;-85
2022/08/27 11:59:41;;;;;;;;;;;26.50;59.20;;;25.13;61.31;100854.66;12249347;19;19914;-85
2022/08/27 12:03:42;;;;;;;;;;;26.50;59.10;;;24.98;61.12;100833.22;12248367;19;19931;-85
2022/08/27 12:07:47;;;;;;;;;;;26.60;59.30;;;25.21;60.80;100861.84;12250879;19;19943;-85
2022/08/27 12:12:08;;;;;;;;;;;26.70;59.40;;;25.08;60.87;100831.13;12247478;19;19929;-86
2022/08/27 12:16:24;;;;;;;;;;;26.70;59.30;;;25.24;61.14;100850.78;12241843;19;19931;-86
2022/08/27 12:20:48;;;;;;;;;;;26.70;59.30;;;25.34;60.84;100856.72;12247906;19;20251;-84
2022/08/27 12:24:56;;;;;;;;;;;26.80;59.20;;;25.28;61.05;100850.25;12250283;19;19911;-86
2022/08/27 12:29:19;;;;;;;;;;;26.80;59.20;;;25.34;60.73;100862.06;12251992;19;20269;-84
2022/08/27 12:33:42;;;;;;;;;;;26.80;59.10;;;25.25;61.02;100836.38;12248631;19;19915;-85
2022/08/27 12:37:50;;;;;;;;;;;26.80;59.20;;;25.27;61.24;100840.56;12250873;19;19915;-85
2022/08/27 12:41:52;;;;;;;;;;;26.80;59.10;;;25.38;60.97;100848.19;12247902;19;19922;-85
2022/08/27 12:46:02;;;;;;;;;;;26.80;59.10;;;25.42;60.92;100845.16;12251021;19;19995;-86
2022/08/27 12:50:04;;;;;;;;;;;26.80;59.10;;;25.19;61.35;100805.03;12249917;19;19974;-86
2022/08/27 12:54:21;;;;;;;;;;;26.90;59.10;;;25.45;61.04;100848.28;12245809;19;19927;-87
2022/08/27 12:58:58;;;;;;;;;;;26.90;59.00;;;25.47;61.03;100838.25;12248743;19;19929;-85
2022/08/27 13:03:18;;;;;;;;;;;26.90;59.10;;;25.38;61.34;100805.41;12241210;19;20261;-85
2022/08/27 13:07:28;;;;;;;;;;;27.00;59.10;;;25.50;61.26;100819.16;12247218;19;19918;-85
2022/08/27 13:11:42;;;;;;;;;;;27.00;59.00;;;25.50;60.98;100810.31;12242196;19;20026;-85
2022/08/27 13:15:48;;;;;;;;;;;27.00;59.00;;;25.43;61.00;100796.00;12253709;19;19926;-86
2022/08/27 13:19:59;;;;;;;;;;;27.00;59.10;;;25.61;61.23;100796.50;12253570;19;19915;-85
2022/08/27 13:24:05;;;;;;;;;;;27.10;59.00;;;25.61;61.25;100800.00;12260823;19;19919;-86
2022/08/27 13:28:13;;;;;;;;;;;27.20;59.00;;;25.71;61.16;100804.28;12260919;19;20242;-85
2022/08/27 13:32:15;;;;;;;;;;;27.20;59.10;;;25.49;60.73;100758.69;12255674;19;19915;-85
2022/08/27 13:36:32;;;;;;;;;;;27.30;59.10;;;25.83;60.84;100789.44;12259244;19;19911;-85
2022/08/27 13:40:49;;;;;;;;;;;27.30;59.10;;;25.82;60.88;100785.09;12255017;19;20304;-84
2022/08/27 13:44:55;;;;;;;;;;;27.70;59.40;;;25.93;60.93;100791.88;12254894;19;19911;-85
2022/08/27 13:48:57;;;;;;;;;;;27.40;59.10;;;26.06;60.92;100805.47;12259893;19;19919;-86
2022/08/27 13:57:30;;;;;;;;;;;27.60;59.10;;;26.20;60.74;100803.78;12258156;19;19915;-86
2022/08/27 14:01:32;;;;;;;;;;;27.60;59.20;;;26.30;60.77;100800.81;12251127;19;19910;-85
2022/08/27 14:05:35;;;;;;;;;;;27.80;59.20;;;26.30;61.20;100785.56;12250376;19;21072;-86
2022/08/27 14:09:49;;;;;;;;;;;27.80;59.20;;;26.42;60.87;100792.13;12254908;19;19914;-85
2022/08/27 14:13:51;;;;;;;;;;;27.90;59.20;;;26.49;60.69;100790.38;12261108;19;19922;-86
2022/08/27 14:17:53;;;;;;;;;;;28.00;59.20;;;26.58;60.85;100795.66;12260910;19;19952;-86
2022/08/27 14:21:55;;;;;;;;;;;28.00;59.20;;;26.52;60.96;100781.16;12254749;19;19927;-86
2022/08/27 14:26:00;;;;;;;;;;;28.10;59.10;;;26.67;60.82;100797.19;12259659;19;19930;-86
2022/08/27 14:30:01;;;;;;;;;;;28.10;59.10;;;26.58;60.90;100777.72;12259735;19;19938;-84
2022/08/27 14:34:04;;;;;;;;;;;28.10;59.10;;;26.54;60.89;100765.72;12257825;19;20293;-86
2022/08/27 14:38:21;;;;;;;;;;;28.20;59.00;;;26.88;60.77;100805.25;12258425;19;19951;-86
2022/08/27 14:42:22;;;;;;;;;;;28.20;59.00;;;26.94;60.46;100798.31;12251257;19;20346;-86
2022/08/27 14:46:30;;;;;;;;;;;28.30;58.90;;;27.03;60.62;100796.31;12256383;19;19922;-86
2022/08/27 14:50:33;;;;;;;;;;;28.40;58.80;;;27.02;60.57;100787.47;12255957;19;19914;-84
2022/08/27 14:54:35;;;;;;;;;;;28.40;58.80;;;27.06;60.55;100775.34;12254573;19;20259;-85
2022/08/27 14:58:37;;;;;;;;;;;28.50;58.80;;;27.17;60.35;100779.41;12255291;19;19926;-86
2022/08/27 15:02:43;;;;;;;;;;;28.50;58.80;;;27.12;60.46;100771.06;12245828;19;19922;-85
2022/08/27 15:06:44;;;;;;;;;;;28.60;58.70;;;27.27;60.72;100776.38;12255256;19;19939;-84
2022/08/27 15:10:46;;;;;;;;;;;28.60;58.60;;;27.26;60.44;100775.56;12251472;19;19940;-84
2022/08/27 15:14:47;;;;;;;;;;;28.70;58.60;;;27.31;60.63;100786.53;12256920;19;19990;-83
2022/08/27 15:18:49;;;;;;;;;;;28.70;58.50;;;27.41;60.03;100807.66;12253345;19;19906;-83
2022/08/27 15:22:51;;;;;;;;;;;28.80;58.50;;;27.46;60.20;100807.06;12251420;19;20337;-83
2022/08/27 15:26:56;;;;;;;;;;;28.80;58.40;;;27.35;60.04;100787.81;12254144;19;19943;-83
2022/08/27 15:30:58;;;;;;;;;;;28.90;58.30;;;27.36;60.40;100777.91;12251120;19;20373;-83
2022/08/27 15:35:03;;;;;;;;;;;28.80;58.30;;;27.38;59.85;100783.06;12250811;19;20347;-83
2022/08/27 15:39:05;;;;;;;;;;;28.90;58.30;;;27.28;60.18;100775.38;12248855;19;20006;-83
2022/08/27 15:43:06;;;;;;;;;;;28.90;58.30;;;27.40;60.27;100795.25;12248430;19;19970;-83
2022/08/27 15:47:08;;;;;;;;;;;28.90;58.30;;;27.31;60.33;100789.22;12252112;19;20265;-83
2022/08/27 15:51:10;;;;;;;;;;;28.80;58.10;;;27.20;60.13;100784.38;12247168;19;19926;-83
2022/08/27 15:55:21;;;;;;;;;;;28.80;58.00;;;27.08;60.42;100775.97;12248596;19;19919;-83
2022/08/27 15:59:22;;;;;;;;;;;28.80;58.00;;;27.16;60.16;100801.81;12247104;19;19930;-83
2022/08/27 16:03:24;;;;;;;;;;;28.70;57.90;;;27.01;60.17;100793.03;12248859;19;19929;-83
2022/08/27 16:07:26;;;;;;;;;;;28.70;57.90;;;26.89;59.97;100790.81;12251251;19;19946;-83
2022/08/27 16:11:27;;;;;;;;;;;28.60;57.80;;;26.93;59.78;100799.34;12248325;19;19914;-83
2022/08/27 16:15:31;;;;;;;;;;;28.50;57.80;;;26.87;59.96;100800.94;12250562;19;19922;-84
2022/08/27 16:19:39;;;;;;;;;;;28.50;57.80;;;26.84;59.87;100804.00;12247995;19;19927;-83
2022/08/27 16:23:41;;;;;;;;;;;28.50;57.80;;;26.76;60.09;100796.06;12249026;19;19903;-83
2022/08/27 16:27:43;;;;;;;;;;;28.40;57.90;;;26.71;60.07;100795.81;12252892;19;19907;-84
2022/08/27 16:31:44;;;;;;;;;;;28.40;57.90;;;26.70;59.85;100803.00;12247757;19;20389;-84
2022/08/27 16:35:46;;;;;;;;;;;28.30;57.90;;;26.66;60.22;100798.22;12249103;19;19923;-84
2022/08/27 16:39:47;;;;;;;;;;;28.20;57.80;;;26.63;60.16;100814.66;12247640;19;19927;-84
2022/08/27 16:43:49;;;;;;;;;;;28.20;57.80;;;26.44;59.84;100798.13;12246924;19;19911;-84
2022/08/27 16:52:10;;;;;;;;;;;28.10;57.80;;;26.36;60.10;100819.66;12241659;19;19930;-86
2022/08/27 16:56:12;;;;;;;;;;;28.00;57.80;;;26.20;60.05;100811.81;12243141;19;20211;-87
2022/08/27 17:00:13;;;;;;;;;;;27.90;57.80;;;26.24;59.89;100821.13;12248365;19;19913;-85
2022/08/27 17:04:20;;;;;;;;;;;27.80;57.70;;;26.21;60.08;100833.03;12253376;19;20223;-87
2022/08/27 17:08:22;;;;;;;;;;;27.80;57.70;;;26.05;59.96;100823.34;12253567;19;19987;-86
2022/08/27 17:12:34;;;;;;;;;;;27.70;57.70;;;25.74;59.94;100788.69;12250750;19;20333;-86
2022/08/27 17:16:37;;;;;;;;;;;27.60;57.70;;;26.00;60.07;100849.00;12260068;19;19939;-87
2022/08/27 17:20:39;;;;;;;;;;;27.50;57.70;;;25.66;60.20;100801.31;12253776;19;19932;-86
2022/08/27 17:24:40;;;;;;;;;;;27.50;57.80;;;25.75;59.90;100832.31;12253303;19;19911;-86
2022/08/27 17:28:43;;;;;;;;;;;27.50;57.80;;;25.71;60.35;100845.22;12253647;19;19919;-85
2022/08/27 17:32:45;;;;;;;;;;;27.40;57.70;;;25.54;60.31;100844.53;12248397;19;19911;-87
2022/08/27 17:36:48;;;;;;;;;;;27.30;57.70;;;25.47;59.99;100856.97;12255145;19;19915;-86
2022/08/27 17:40:51;;;;;;;;;;;27.20;57.70;;;25.45;60.19;100853.63;12250368;19;19978;-86
2022/08/27 17:44:52;;;;;;;;;;;27.10;57.80;;;25.45;60.59;100861.66;12251960;19;19915;-87
2022/08/27 17:48:54;;;;;;;;;;;27.10;57.90;;;25.49;59.84;100886.19;12253970;19;19910;-86
2022/08/27 17:52:56;;;;;;;;;;;27.00;57.80;;;25.41;60.33;100888.91;12248784;19;19923;-86
2022/08/27 17:56:58;;;;;;;;;;;27.00;57.80;;;25.32;60.22;100893.50;12251640;19;19940;-87
2022/08/27 18:01:00;;;;;;;;;;;26.90;57.80;;;24.89;60.20;100842.28;12248945;19;19946;-86
2022/08/27 18:05:03;;;;;;;;;;;26.80;57.80;;;25.09;60.03;100885.44;12262948;19;19926;-86
2022/08/27 18:09:09;;;;;;;;;;;26.80;57.80;;;24.72;60.26;100826.34;12262266;19;19919;-87
2022/08/27 18:13:13;;;;;;;;;;;26.70;57.80;;;24.95;60.18;100878.97;12258748;19;20419;-89
2022/08/27 18:17:14;;;;;;;;;;;26.60;57.90;;;25.06;60.25;100901.78;12263351;19;19918;-87
2022/08/27 18:21:16;;;;;;;;;;;26.60;58.00;;;25.05;60.16;100905.50;12259772;19;20194;-86
2022/08/27 18:25:20;;;;;;;;;;;26.60;58.00;;;24.80;60.14;100873.56;12259851;19;19915;-87
2022/08/27 18:29:21;;;;;;;;;;;26.60;58.00;;;24.97;60.19;100913.53;12259312;19;19921;-88
2022/08/27 18:33:23;;;;;;;;;;;26.60;58.00;;;24.78;60.32;100896.94;12259568;19;19922;-85
2022/08/27 18:37:24;;;;;;;;;;;26.50;57.90;;;24.81;60.50;100909.09;12262564;19;19903;-87
2022/08/27 18:41:28;;;;;;;;;;;26.50;58.00;;;24.73;60.56;100905.47;12258019;19;19923;-86